Terminal Aerodrome Forecast
Issued by NWS

Home | Current Version | Previous Version | Text Only | Print | Product List | Glossary On
Versions: 1 2 3 4 5 6 7 8 9 10 11 12
491
FTUS42 TJSJ 131129
TAFKPK
TAF
TKPK 131129Z 1312/1412 08007KT P6SM VCSH FEW023
     FM131400 08012KT P6SM FEW024
     FM132300 07006KT P6SM FEW025=

USA.gov is the U.S. government's official web portal to all federal, state and local government web resources and services.